Time;durP1;ratioP1;P1;durP2;ratioP2;P2;SDS_P1;SDS_P2;PMS_P1;PMS_P2;Temp;Humidity;BMP_temperature;BMP_pressure;BME280_temperature;BME280_humidity;BME280_pressure;Samples;Min_cycle;Max_cycle;Signal;HPM_P1;HPM_P2
2022/02/27 00:01:16;;;;;;;11.30;3.63;;;;;;;1.46;100.00;103496.09;4754852;30;20058;-78
2022/02/27 00:03:42;;;;;;;13.75;3.97;;;;;;;1.45;100.00;103497.00;4755976;30;20122;-78
2022/02/27 00:06:07;;;;;;;11.25;3.33;;;;;;;1.32;100.00;103475.50;4753702;30;20052;-78
2022/02/27 00:08:32;;;;;;;8.80;3.95;;;;;;;1.41;100.00;103491.00;4768927;30;20032;-78
2022/02/27 00:10:58;;;;;;;9.85;3.40;;;;;;;1.46;100.00;103496.09;4755534;30;20039;-78
2022/02/27 00:13:23;;;;;;;10.65;3.40;;;;;;;1.45;100.00;103494.34;4752788;30;20075;-78
2022/02/27 00:15:50;;;;;;;18.88;3.83;;;;;;;1.41;100.00;103490.16;4754542;30;20043;-78
2022/02/27 00:18:15;;;;;;;10.43;3.08;;;;;;;1.37;100.00;103483.28;4753538;30;20032;-78
2022/02/27 00:20:41;;;;;;;9.65;3.67;;;;;;;1.40;100.00;103483.97;4755385;30;20502;-78
2022/02/27 00:23:06;;;;;;;11.38;3.45;;;;;;;1.38;100.00;103479.66;4739477;30;20039;-78
2022/02/27 00:25:32;;;;;;;12.93;3.55;;;;;;;1.47;100.00;103496.97;4756367;30;20036;-78
2022/02/27 00:28:02;;;;;;;11.95;3.28;;;;;;;1.50;100.00;103502.13;4753588;30;20044;-78
2022/02/27 00:30:28;;;;;;;10.88;3.83;;;;;;;1.42;100.00;103491.84;4755054;30;20040;-79
2022/02/27 00:32:53;;;;;;;12.55;3.83;;;;;;;1.50;100.00;103515.38;4754771;30;20032;-78
2022/02/27 00:35:18;;;;;;;15.93;3.20;;;;;;;1.41;100.00;103506.06;4755242;30;20471;-78
2022/02/27 00:37:44;;;;;;;12.57;3.58;;;;;;;1.48;100.00;103510.13;4776677;30;20073;-79
2022/02/27 00:40:10;;;;;;;9.07;3.10;;;;;;;1.48;100.00;103506.63;4776942;30;20169;-78
2022/02/27 00:42:36;;;;;;;14.95;3.90;;;;;;;1.48;100.00;103503.97;4773950;30;20434;-78
2022/02/27 00:45:01;;;;;;;10.38;3.60;;;;;;;1.48;100.00;103511.94;4769445;30;20032;-78
2022/02/27 00:47:26;;;;;;;8.80;3.30;;;;;;;1.49;100.00;103511.00;4754873;30;20363;-78
2022/02/27 00:49:52;;;;;;;10.90;3.33;;;;;;;1.49;100.00;103513.66;4752814;30;20052;-78
2022/02/27 00:52:22;;;;;;;12.25;3.40;;;;;;;1.49;100.00;103519.84;4754109;30;20036;-78
2022/02/27 00:54:49;;;;;;;12.32;3.83;;;;;;;1.52;100.00;103518.81;4753940;30;20036;-78
2022/02/27 00:57:15;;;;;;;11.05;3.47;;;;;;;1.52;100.00;103518.81;4755898;30;20041;-78
2022/02/27 00:59:44;;;;;;;7.97;3.53;;;;;;;1.51;100.00;103522.41;4759712;30;20044;-79
2022/02/27 01:02:12;;;;;;;15.15;3.72;;;;;;;1.50;100.00;103532.16;4753090;30;20131;-78
2022/02/27 01:04:38;;;;;;;10.65;3.53;;;;;;;1.49;100.00;103526.91;4765880;30;20090;-77
2022/02/27 01:07:04;;;;;;;19.30;3.63;;;;;;;1.51;100.00;103533.03;4753160;30;20040;-78
2022/02/27 01:09:29;;;;;;;10.30;3.85;;;;;;;1.53;100.00;103542.63;4753603;30;20036;-78
2022/02/27 01:11:54;;;;;;;12.57;3.88;;;;;;;1.39;100.00;103524.72;4752372;30;20032;-78
2022/02/27 01:14:20;;;;;;;9.70;3.80;;;;;;;1.54;100.00;103544.34;4754151;30;20036;-78
2022/02/27 01:16:45;;;;;;;12.05;3.88;;;;;;;1.59;100.00;103549.41;4754060;30;20036;-78
2022/02/27 01:19:11;;;;;;;15.38;4.40;;;;;;;1.61;100.00;103547.56;4734854;30;20071;-78
2022/02/27 01:21:38;;;;;;;10.70;3.78;;;;;;;1.63;100.00;103551.03;4750976;30;20511;-78
2022/02/27 01:24:03;;;;;;;17.30;4.18;;;;;;;1.62;100.00;103542.22;4749783;30;20033;-78
2022/02/27 01:26:29;;;;;;;14.20;4.10;;;;;;;1.63;100.00;103541.25;4737225;30;20059;-78
2022/02/27 01:28:54;;;;;;;11.00;3.65;;;;;;;1.60;100.00;103536.09;4766983;30;20169;-78
2022/02/27 01:31:19;;;;;;;9.85;3.92;;;;;;;1.64;100.00;103550.94;4770720;30;20120;-78
2022/02/27 01:33:45;;;;;;;7.82;3.42;;;;;;;1.65;100.00;103546.47;4757059;30;20036;-78
2022/02/27 01:36:10;;;;;;;12.43;3.67;;;;;;;1.57;100.00;103530.06;4754068;30;20129;-78
2022/02/27 01:38:36;;;;;;;12.38;3.72;;;;;;;1.69;100.00;103555.16;4754185;30;20375;-78
2022/02/27 01:41:01;;;;;;;11.75;3.92;;;;;;;1.62;100.00;103533.34;4739295;30;20044;-78
2022/02/27 01:43:27;;;;;;;11.57;3.90;;;;;;;1.63;100.00;103535.09;4753066;30;20178;-78
2022/02/27 01:45:52;;;;;;;11.70;4.30;;;;;;;1.68;100.00;103549.00;4757656;30;20032;-78
2022/02/27 01:48:18;;;;;;;15.07;4.25;;;;;;;1.68;100.00;103543.69;4755033;30;20131;-78
2022/02/27 01:50:43;;;;;;;13.23;3.67;;;;;;;1.65;100.00;103546.47;4769480;30;20433;-79
2022/02/27 01:53:08;;;;;;;20.50;4.07;;;;;;;1.64;100.00;103552.72;4754400;30;20036;-78
2022/02/27 01:55:34;;;;;;;12.93;4.10;;;;;;;1.62;100.00;103541.31;4768077;30;20071;-78
2022/02/27 01:58:01;;;;;;;15.60;4.40;;;;;;;1.62;100.00;103536.00;4766602;30;20405;-78
2022/02/27 02:00:26;;;;;;;11.90;4.28;;;;;;;1.61;100.00;103542.25;4753827;30;20113;-78
2022/02/27 02:02:52;;;;;;;12.48;4.32;;;;;;;1.53;100.00;103525.84;4750836;30;20040;-78
2022/02/27 02:05:17;;;;;;;13.13;4.20;;;;;;;1.55;100.00;103530.13;4753592;30;20142;-78
2022/02/27 02:07:43;;;;;;;11.50;4.47;;;;;;;1.62;100.00;103541.31;4759106;30;20411;-78
2022/02/27 02:10:09;;;;;;;11.82;4.68;;;;;;;1.60;100.00;103551.16;4756210;30;20413;-78
2022/02/27 02:12:35;;;;;;;12.00;4.38;;;;;;;1.59;100.00;103555.63;4772015;30;20126;-78
2022/02/27 02:15:01;;;;;;;16.63;4.55;;;;;;;1.60;100.00;103553.81;4756328;30;20128;-78
2022/02/27 02:17:29;;;;;;;11.85;4.57;;;;;;;1.46;100.00;103533.25;4756737;30;20032;-78
2022/02/27 02:19:56;;;;;;;11.63;4.68;;;;;;;1.57;100.00;103560.13;4753678;30;20056;-78
2022/02/27 02:22:21;;;;;;;12.70;4.47;;;;;;;1.54;100.00;103557.63;4767093;30;20127;-78
2022/02/27 02:24:47;;;;;;;16.60;4.53;;;;;;;1.53;100.00;103547.94;4762772;30;20127;-78
2022/02/27 02:27:12;;;;;;;14.27;4.63;;;;;;;1.57;100.00;103546.84;4753141;30;20067;-78
2022/02/27 02:29:38;;;;;;;12.50;4.40;;;;;;;1.56;100.00;103547.81;4765158;30;20685;-78
2022/02/27 02:32:04;;;;;;;13.48;3.95;;;;;;;1.58;100.00;103542.41;4752132;30;20036;-78
2022/02/27 02:34:29;;;;;;;11.98;4.13;;;;;;;1.60;100.00;103549.38;4752419;30;20093;-78
2022/02/27 02:36:56;;;;;;;13.40;4.03;;;;;;;1.60;100.00;103545.84;4749061;30;20444;-78
2022/02/27 02:39:23;;;;;;;10.50;4.07;;;;;;;1.64;100.00;103545.63;4753898;30;20043;-78
2022/02/27 02:41:49;;;;;;;15.38;4.50;;;;;;;1.55;100.00;103523.97;4750778;30;20032;-78
2022/02/27 02:44:14;;;;;;;13.60;4.25;;;;;;;1.66;100.00;103548.22;4751753;30;20043;-78
2022/02/27 02:46:41;;;;;;;14.77;4.03;;;;;;;1.64;100.00;103540.31;4753103;30;20042;-78
2022/02/27 02:49:08;;;;;;;11.15;4.15;;;;;;;1.65;100.00;103535.88;4752678;30;20032;-78
2022/02/27 02:51:34;;;;;;;15.38;4.47;;;;;;;1.65;100.00;103536.72;4753698;30;20032;-78
2022/02/27 02:53:59;;;;;;;13.68;4.53;;;;;;;1.65;100.00;103534.06;4754124;30;20066;-78
2022/02/27 02:56:25;;;;;;;11.93;4.13;;;;;;;1.57;100.00;103522.13;4751734;30;20032;-78
2022/02/27 02:58:50;;;;;;;13.48;4.68;;;;;;;1.59;100.00;103522.88;4752587;30;20483;-78
2022/02/27 03:01:17;;;;;;;13.60;4.65;;;;;;;1.64;100.00;103529.69;4754230;30;20037;-78
2022/02/27 03:03:44;;;;;;;15.00;4.72;;;;;;;1.55;100.00;103527.47;4753519;30;20531;-78
2022/02/27 03:06:11;;;;;;;11.57;5.22;;;;;;;1.64;100.00;103532.34;4751494;30;20037;-77
2022/02/27 03:08:43;;;;;;;16.35;5.47;;;;;;;1.51;100.00;103512.66;4753273;30;20028;-78
2022/02/27 03:11:08;;;;;;;17.20;5.07;;;;;;;1.64;100.00;103531.50;4752433;30;20360;-78
2022/02/27 03:13:35;;;;;;;17.90;5.50;;;;;;;1.63;100.00;103540.41;4752153;30;20044;-78
2022/02/27 03:16:00;;;;;;;12.38;4.93;;;;;;;1.64;100.00;103537.66;4757119;30;20051;-78
2022/02/27 03:18:26;;;;;;;16.23;5.50;;;;;;;1.67;100.00;103539.31;4756444;30;20368;-78
2022/02/27 03:20:51;;;;;;;16.98;5.72;;;;;;;1.66;100.00;103542.91;4755999;30;20157;-78
2022/02/27 03:23:18;;;;;;;16.50;5.40;;;;;;;1.68;100.00;103546.34;4759275;30;20475;-78
2022/02/27 03:25:43;;;;;;;15.15;5.47;;;;;;;1.63;100.00;103537.75;4763016;30;20049;-78
2022/02/27 03:28:11;;;;;;;14.48;5.47;;;;;;;1.67;100.00;103541.97;4751609;30;20024;-78
2022/02/27 03:30:38;;;;;;;17.42;5.82;;;;;;;1.69;100.00;103549.84;4752179;30;20352;-78
2022/02/27 03:33:07;;;;;;;22.58;6.20;;;;;;;1.65;100.00;103542.03;4749752;30;20046;-78
2022/02/27 03:35:33;;;;;;;18.73;6.55;;;;;;;1.65;100.00;103538.50;4752021;30;20040;-78
2022/02/27 03:38:00;;;;;;;16.65;5.60;;;;;;;1.63;100.00;103528.00;4752039;30;20156;-78
2022/02/27 03:40:26;;;;;;;21.40;6.72;;;;;;;1.40;100.00;103499.91;4752898;30;20371;-78
2022/02/27 03:42:53;;;;;;;16.60;6.70;;;;;;;1.62;100.00;103551.94;4751160;30;20032;-78
2022/02/27 03:45:19;;;;;;;22.80;6.40;;;;;;;1.55;100.00;103539.91;4752685;30;20042;-78
2022/02/27 03:47:45;;;;;;;18.27;6.03;;;;;;;1.60;100.00;103544.06;4751063;30;20032;-78
2022/02/27 03:50:15;;;;;;;16.65;6.75;;;;;;;1.52;100.00;103530.28;4753069;30;20044;-78
2022/02/27 03:52:41;;;;;;;17.02;6.07;;;;;;;1.58;100.00;103545.06;4751183;30;20032;-78
2022/02/27 03:55:10;;;;;;;16.42;6.60;;;;;;;1.56;100.00;103531.88;4752344;30;20044;-78
2022/02/27 03:57:36;;;;;;;17.38;6.80;;;;;;;1.55;100.00;103530.13;4765236;30;20075;-78
2022/02/27 04:00:05;;;;;;;17.50;6.72;;;;;;;1.55;100.00;103540.75;4753269;30;20456;-78
2022/02/27 04:02:31;;;;;;;27.95;7.32;;;;;;;1.54;100.00;103535.53;4768927;30;20056;-78
2022/02/27 04:04:58;;;;;;;20.25;7.07;;;;;;;1.55;100.00;103539.91;4751345;30;20067;-78
2022/02/27 04:07:24;;;;;;;18.42;6.82;;;;;;;1.54;100.00;103530.22;4748940;30;20502;-78
2022/02/27 04:09:50;;;;;;;16.85;6.53;;;;;;;1.47;100.00;103523.50;4751806;30;20060;-78
2022/02/27 04:12:16;;;;;;;17.05;6.60;;;;;;;1.51;100.00;103525.91;4750143;30;20059;-78
2022/02/27 04:14:42;;;;;;;21.65;7.65;;;;;;;1.55;100.00;103539.91;4753168;30;20072;-78
2022/02/27 04:17:08;;;;;;;18.05;7.00;;;;;;;1.56;100.00;103531.88;4752049;30;20102;-77
2022/02/27 04:19:33;;;;;;;27.58;7.43;;;;;;;1.56;100.00;103526.56;4753491;30;20495;-78
2022/02/27 04:21:59;;;;;;;21.88;7.95;;;;;;;1.54;100.00;103535.53;4754233;30;20054;-78
2022/02/27 04:24:24;;;;;;;24.48;7.55;;;;;;;1.48;100.00;103518.09;4755116;30;20367;-78
2022/02/27 04:26:51;;;;;;;25.17;8.05;;;;;;;1.38;100.00;103501.75;4755759;30;20038;-78
2022/02/27 04:29:18;;;;;;;19.80;7.93;;;;;;;1.54;100.00;103532.88;4758918;30;20123;-78
2022/02/27 04:31:44;;;;;;;22.15;7.90;;;;;;;1.53;100.00;103534.69;4755756;30;20137;-78
2022/02/27 04:34:09;;;;;;;27.88;8.98;;;;;;;1.39;100.00;103508.81;4755641;30;20040;-78
2022/02/27 04:36:35;;;;;;;23.85;8.18;;;;;;;1.49;100.00;103535.75;4754811;30;20467;-78
2022/02/27 04:39:01;;;;;;;18.75;8.40;;;;;;;1.51;100.00;103539.19;4754713;30;20780;-78
2022/02/27 04:41:26;;;;;;;22.45;8.07;;;;;;;1.51;100.00;103540.97;4753722;30;20040;-78
2022/02/27 04:43:51;;;;;;;22.15;8.63;;;;;;;1.49;100.00;103541.06;4754076;30;20383;-78
2022/02/27 04:46:18;;;;;;;25.13;9.05;;;;;;;1.49;100.00;103540.19;4754462;30;20044;-78
2022/02/27 04:48:44;;;;;;;23.25;8.50;;;;;;;1.49;100.00;103534.88;4753651;30;20039;-78
2022/02/27 04:51:09;;;;;;;24.50;8.88;;;;;;;1.44;100.00;103531.59;4754936;30;20046;-78
2022/02/27 04:53:35;;;;;;;26.73;8.80;;;;;;;1.42;100.00;103529.00;4753159;30;20125;-78
2022/02/27 04:56:01;;;;;;;27.48;9.15;;;;;;;1.49;100.00;103521.59;4767685;30;20048;-78
2022/02/27 04:58:27;;;;;;;27.02;9.43;;;;;;;1.50;100.00;103518.91;4753953;30;20066;-78
2022/02/27 05:00:53;;;;;;;24.77;9.20;;;;;;;1.52;100.00;103518.81;4755410;30;20040;-78
2022/02/27 05:03:19;;;;;;;30.00;9.68;;;;;;;1.50;100.00;103510.09;4749487;30;20456;-78
2022/02/27 05:05:44;;;;;;;25.42;8.63;;;;;;;1.48;100.00;103507.47;4751824;30;20040;-77
2022/02/27 05:08:09;;;;;;;25.42;8.90;;;;;;;1.50;100.00;103510.09;4771530;30;20028;-78
2022/02/27 05:10:36;;;;;;;26.38;8.50;;;;;;;1.41;100.00;103498.97;4776123;30;20044;-78
2022/02/27 05:13:04;;;;;;;24.05;8.70;;;;;;;1.51;100.00;103512.66;4774133;30;20039;-78
2022/02/27 05:15:30;;;;;;;22.55;8.57;;;;;;;1.54;100.00;103511.66;4756007;30;20032;-78
2022/02/27 05:17:55;;;;;;;16.90;7.75;;;;;;;1.53;100.00;103509.94;4755062;30;20114;-78
2022/02/27 05:20:21;;;;;;;27.63;8.30;;;;;;;1.52;100.00;103513.50;4753492;30;20651;-78
2022/02/27 05:22:48;;;;;;;27.52;8.85;;;;;;;1.54;100.00;103511.66;4752788;30;20059;-78
2022/02/27 05:25:17;;;;;;;26.13;7.82;;;;;;;1.49;100.00;103513.66;4752525;30;20083;-79
2022/02/27 05:27:42;;;;;;;22.00;8.63;;;;;;;1.54;100.00;103516.94;4753776;30;20028;-78
2022/02/27 05:30:09;;;;;;;23.25;8.55;;;;;;;1.39;100.00;103497.31;4752963;30;20098;-78
2022/02/27 05:32:34;;;;;;;21.27;8.13;;;;;;;1.52;100.00;103524.97;4751589;30;20047;-77
2022/02/27 05:35:00;;;;;;;24.42;8.57;;;;;;;1.44;100.00;103515.69;4754751;30;20028;-78
2022/02/27 05:37:25;;;;;;;22.70;7.78;;;;;;;1.51;100.00;103533.88;4773539;30;20016;-78
2022/02/27 05:39:51;;;;;;;21.75;7.82;;;;;;;1.49;100.00;103530.44;4755008;30;20040;-78
2022/02/27 05:42:16;;;;;;;20.92;7.65;;;;;;;1.50;100.00;103528.66;4751131;30;20028;-78
2022/02/27 05:44:42;;;;;;;20.70;8.13;;;;;;;1.52;100.00;103535.59;4751962;30;20072;-78
2022/02/27 05:47:07;;;;;;;22.95;7.63;;;;;;;1.51;100.00;103539.19;4753919;30;20115;-78
2022/02/27 05:49:33;;;;;;;21.52;7.72;;;;;;;1.51;100.00;103535.69;4750872;30;20452;-78
2022/02/27 05:52:00;;;;;;;24.42;8.48;;;;;;;1.48;100.00;103547.28;4768176;30;20396;-78
2022/02/27 05:54:25;;;;;;;22.73;8.43;;;;;;;1.47;100.00;103544.72;4753963;30;20040;-77
2022/02/27 05:56:51;;;;;;;30.65;8.43;;;;;;;1.45;100.00;103547.44;4765262;30;20037;-78
2022/02/27 05:59:16;;;;;;;27.10;9.00;;;;;;;1.45;100.00;103550.06;4736251;30;20407;-77
2022/02/27 06:01:42;;;;;;;16.45;7.00;;;;;;;1.45;100.00;103551.88;4753650;30;20132;-77
2022/02/27 06:04:07;;;;;;;31.30;8.63;;;;;;;1.48;100.00;103549.09;4764479;30;20032;-77
2022/02/27 06:06:34;;;;;;;22.85;7.60;;;;;;;1.50;100.00;103552.53;4759599;30;20063;-77
2022/02/27 06:08:59;;;;;;;21.75;7.95;;;;;;;1.50;100.00;103555.19;4739778;30;20044;-78
2022/02/27 06:11:25;;;;;;;27.73;7.80;;;;;;;1.45;100.00;103560.69;4755351;30;20118;-78
2022/02/27 06:13:51;;;;;;;21.88;7.85;;;;;;;1.49;100.00;103561.41;4752830;30;20040;-77
2022/02/27 06:16:17;;;;;;;30.85;7.45;;;;;;;1.49;100.00;103554.34;4757016;30;20031;-77
2022/02/27 06:18:42;;;;;;;25.35;8.02;;;;;;;1.49;100.00;103557.00;4754483;30;20341;-77
2022/02/27 06:21:07;;;;;;;27.83;7.70;;;;;;;1.49;100.00;103557.00;4751832;30;20063;-77
2022/02/27 06:23:33;;;;;;;29.98;7.57;;;;;;;1.49;100.00;103558.75;4752769;30;20398;-78
2022/02/27 06:26:00;;;;;;;25.10;7.85;;;;;;;1.51;100.00;103560.41;4754607;30;20436;-77
2022/02/27 06:28:25;;;;;;;31.15;8.07;;;;;;;1.53;100.00;103563.88;4753625;30;20036;-77
2022/02/27 06:30:51;;;;;;;24.63;7.40;;;;;;;1.39;100.00;103543.28;4753890;30;20046;-78
2022/02/27 06:33:17;;;;;;;32.65;7.57;;;;;;;1.52;100.00;103561.25;4754108;30;20059;-77
2022/02/27 06:35:42;;;;;;;32.33;8.05;;;;;;;1.54;100.00;103562.06;4755689;30;20031;-77
2022/02/27 06:38:08;;;;;;;23.33;8.32;;;;;;;1.55;100.00;103569.94;4740248;30;20113;-76
2022/02/27 06:40:33;;;;;;;30.75;7.95;;;;;;;1.56;100.00;103565.53;4757467;30;20118;-78
2022/02/27 06:43:06;;;;;;;38.03;7.93;;;;;;;1.45;100.00;103544.78;4752102;30;20044;-76
2022/02/27 06:45:33;;;;;;;32.45;7.63;;;;;;;1.57;100.00;103564.56;4755219;30;20102;-77
2022/02/27 06:47:59;;;;;;;35.13;7.47;;;;;;;1.58;100.00;103566.28;4758416;30;20131;-78
2022/02/27 06:50:24;;;;;;;21.65;6.68;;;;;;;1.55;100.00;103569.94;4754207;30;20024;-78
2022/02/27 06:52:50;;;;;;;28.75;6.53;;;;;;;1.58;100.00;103567.16;4774069;30;20040;-78
2022/02/27 06:55:16;;;;;;;27.60;7.05;;;;;;;1.63;100.00;103565.16;4755615;30;20024;-78
2022/02/27 06:57:46;;;;;;;29.33;6.45;;;;;;;1.61;100.00;103560.84;4753428;30;20056;-78
2022/02/27 07:00:17;;;;;;;27.00;6.20;;;;;;;1.72;100.00;103578.91;4739887;30;20055;-78
2022/02/27 07:02:43;;;;;;;28.05;6.43;;;;;;;1.74;100.00;103587.66;4758720;30;20443;-78
2022/02/27 07:05:09;;;;;;;30.80;6.53;;;;;;;1.68;100.00;103572.88;4754614;30;20036;-78
2022/02/27 07:07:35;;;;;;;31.10;5.57;;;;;;;1.73;100.00;103576.19;4743670;30;20037;-78
2022/02/27 07:10:01;;;;;;;23.75;5.72;;;;;;;1.76;100.00;103572.53;4752183;30;20479;-78
2022/02/27 07:12:28;;;;;;;28.70;6.95;;;;;;;1.85;100.00;103574.72;4753577;30;20101;-78
2022/02/27 07:14:53;;;;;;;29.25;6.88;;;;;;;1.93;100.00;103582.34;4754615;30;20497;-78
2022/02/27 07:17:19;;;;;;;22.17;5.90;;;;;;;1.99;100.00;103582.91;4753444;30;20032;-78
2022/02/27 07:19:44;;;;;;;27.45;6.50;;;;;;;2.05;100.00;103592.34;4752171;30;20063;-78
2022/02/27 07:22:09;;;;;;;29.70;6.18;;;;;;;2.11;100.00;103598.22;4763198;30;20452;-78
2022/02/27 07:24:35;;;;;;;26.02;6.40;;;;;;;2.10;100.00;103587.69;4749960;30;20040;-78
2022/02/27 07:27:01;;;;;;;27.48;7.32;;;;;;;2.23;100.00;103599.41;4751119;30;20040;-78
2022/02/27 07:29:26;;;;;;;30.02;6.82;;;;;;;2.29;100.00;103591.16;4750951;30;20036;-77
2022/02/27 07:31:52;;;;;;;34.75;7.18;;;;;;;2.37;100.00;103597.88;4754424;30;20105;-78
2022/02/27 07:34:17;;;;;;;23.40;6.68;;;;;;;2.41;100.00;103608.25;4750990;30;20059;-77
2022/02/27 07:36:43;;;;;;;30.38;7.50;;;;;;;2.48;100.00;103600.84;4750182;30;20375;-77
2022/02/27 07:39:08;;;;;;;27.75;8.02;;;;;;;2.54;100.00;103611.16;4752788;30;20036;-77
2022/02/27 07:41:34;;;;;;;35.67;8.80;;;;;;;2.62;100.00;103614.31;4750186;30;20560;-77
2022/02/27 07:43:59;;;;;;;36.83;9.00;;;;;;;2.67;100.00;103617.56;4752842;30;20040;-78
2022/02/27 07:46:24;;;;;;;30.80;8.57;;;;;;;2.69;100.00;103613.06;4763455;30;20035;-78
2022/02/27 07:48:50;;;;;;;29.70;7.72;;;;;;;2.80;100.00;103616.00;4754616;30;20032;-77
2022/02/27 07:51:16;;;;;;;25.10;7.45;;;;;;;2.81;100.00;103609.78;4771540;30;20032;-77
2022/02/27 07:53:42;;;;;;;22.00;6.80;;;;;;;2.83;100.00;103597.22;4758466;30;20043;-78
2022/02/27 07:56:07;;;;;;;22.05;6.03;;;;;;;3.01;100.00;103607.84;4762650;30;20039;-78
2022/02/27 07:58:33;;;;;;;17.92;5.40;;;;;;;3.13;100.00;103619.66;4752777;30;20036;-78
2022/02/27 08:00:58;;;;;;;24.45;6.25;;;;;;;3.24;100.00;103619.94;4754380;30;20047;-76
2022/02/27 08:03:24;;;;;;;23.05;5.68;;;;;;;3.28;100.00;103618.84;4758304;30;20045;-77
2022/02/27 08:05:49;;;;;;;21.02;5.53;;;;;;;3.37;100.00;103613.00;4756175;30;20028;-77
2022/02/27 08:08:14;;;;;;;20.45;4.60;;;;;;;3.43;100.00;103618.00;4739111;30;20024;-77
2022/02/27 08:10:40;;;;;;;19.33;5.03;;;;;;;3.51;100.00;103615.78;4738687;30;20044;-78
2022/02/27 08:13:05;;;;;;;18.45;3.90;;;;;;;3.59;100.00;103619.84;4750508;30;20528;-78
2022/02/27 08:15:31;;;;;;;16.40;4.43;;;;;;;3.58;100.00;103600.34;4753343;30;20109;-78
2022/02/27 08:17:56;;;;;;;15.20;3.75;;;;;;;3.69;100.00;103618.38;4753984;30;21918;-78
2022/02/27 08:20:21;;;;;;;20.42;4.20;;;;;;;3.63;100.00;103603.59;4751913;30;20627;-78
2022/02/27 08:22:47;;;;;;;15.88;3.90;;;;;;;3.81;100.00;103623.03;4768913;30;20048;-78
2022/02/27 08:25:15;;;;;;;15.75;3.78;;;;;;;3.88;100.00;103629.72;4774218;30;20126;-78
2022/02/27 08:27:42;;;;;;;15.80;3.80;;;;;;;3.88;100.00;103620.88;4752364;30;20028;-80
2022/02/27 08:30:08;;;;;;;22.45;3.95;;;;;;;4.01;100.00;103624.56;4768881;30;20048;-79
2022/02/27 08:32:34;;;;;;;21.15;4.18;;;;;;;3.97;100.00;103618.56;4755552;30;20036;-78
2022/02/27 08:35:00;;;;;;;17.35;4.50;;;;;;;4.12;100.00;103630.16;4755562;30;20032;-78
2022/02/27 08:37:26;;;;;;;19.58;4.70;;;;;;;4.15;100.00;103616.66;4754759;30;20094;-79
2022/02/27 08:39:51;;;;;;;20.65;4.53;;;;;;;4.22;100.00;103631.34;4758724;30;20032;-80
2022/02/27 08:42:17;;;;;;;20.50;5.10;;;;;;;4.17;100.00;103617.44;4771284;30;20353;-78
2022/02/27 08:44:42;;;;;;;19.65;5.45;;;;;;;4.16;100.00;103613.03;4752608;30;20115;-79
2022/02/27 08:47:07;;;;;;;22.27;5.93;;;;;;;4.32;100.00;103629.00;4760146;30;20042;-80
2022/02/27 08:49:36;;;;;;;27.83;5.70;;;;;;;4.36;100.00;103625.19;4759661;30;20093;-79
2022/02/27 08:52:03;;;;;;;19.77;5.55;;;;;;;4.43;100.00;103621.22;4760839;30;20418;-78
2022/02/27 08:54:28;;;;;;;23.15;5.60;;;;;;;4.48;100.00;103623.63;4756709;30;20114;-78
2022/02/27 08:56:54;;;;;;;24.00;5.25;;;;;;;4.55;100.00;103625.00;4761177;30;20551;-79
2022/02/27 08:59:19;;;;;;;18.45;5.25;;;;;;;4.66;100.00;103630.53;4764580;30;20097;-79
2022/02/27 09:01:45;;;;;;;22.27;4.75;;;;;;;4.70;100.00;103608.09;4758723;30;20122;-79
2022/02/27 09:04:11;;;;;;;19.08;5.72;;;;;;;4.78;100.00;103630.78;4766312;29;20043;-78
2022/02/27 09:06:36;;;;;;;17.27;4.47;;;;;;;4.77;100.00;103618.38;4763316;30;20040;-78
2022/02/27 09:09:03;;;;;;;26.25;4.00;;;;;;;4.84;100.00;103623.25;4754490;30;20526;-78
2022/02/27 09:11:28;;;;;;;17.50;3.88;;;;;;;4.82;100.00;103608.28;4759272;30;20032;-78
2022/02/27 09:13:54;;;;;;;17.08;4.50;;;;;;;5.02;100.00;103628.44;4763110;30;20036;-79
2022/02/27 09:16:19;;;;;;;16.83;4.35;;;;;;;4.95;100.00;103612.78;4763430;30;20379;-79
2022/02/27 09:18:44;;;;;;;18.33;3.80;;;;;;;5.12;100.00;103634.91;4759837;30;20048;-80
2022/02/27 09:21:10;;;;;;;18.25;4.20;;;;;;;5.11;100.00;103625.22;4755280;30;20135;-79
2022/02/27 09:23:35;;;;;;;21.27;3.80;;;;;;;5.14;100.00;103623.22;4753849;30;20438;-79
2022/02/27 09:26:02;;;;;;;14.30;3.15;;;;;;;5.09;100.00;103611.09;4753028;30;20125;-79
2022/02/27 09:28:28;;;;;;;15.75;3.88;;;;;;;5.27;100.00;103627.78;4753730;30;20043;-79
2022/02/27 09:30:54;;;;;;;10.50;3.10;;;;;;;5.24;100.00;103628.84;4753398;30;20044;-79
2022/02/27 09:33:20;;;;;;;15.35;3.00;;;;;;;5.22;100.00;103627.22;4738030;30;20367;-78
2022/02/27 09:35:46;;;;;;;15.98;3.20;;;;;;;5.20;100.00;103624.66;4752295;30;20032;-78
2022/02/27 09:38:12;;;;;;;16.17;2.75;;;;;;;5.10;100.00;103621.69;4769374;30;20035;-79
2022/02/27 09:40:37;;;;;;;11.95;2.83;;;;;;;5.17;100.00;103625.69;4760456;30;20148;-78
2022/02/27 09:43:03;;;;;;;11.43;2.60;;;;;;;5.18;100.00;103619.38;4762880;30;20032;-79
2022/02/27 09:45:28;;;;;;;10.05;2.33;;;;;;;5.12;100.00;103603.75;4764492;30;20029;-78
2022/02/27 09:47:54;;;;;;;8.98;2.15;;;;;;;5.29;100.00;103631.22;4751514;30;20048;-78
2022/02/27 09:50:21;;;;;;;12.98;2.20;;;;;;;5.37;100.00;103629.78;4753538;30;20040;-79
2022/02/27 09:52:47;;;;;;;13.85;2.97;;;;;;;5.43;100.00;103639.25;4764633;30;20032;-79
2022/02/27 09:55:14;;;;;;;11.27;2.10;;;;;;;5.44;100.00;103640.94;4759513;30;20503;-79
2022/02/27 09:57:42;;;;;;;9.18;2.13;;;;;;;5.47;100.00;103638.09;4762927;30;20055;-79
2022/02/27 10:00:08;;;;;;;10.63;1.95;;;;;;;5.38;100.00;103633.31;4761640;30;20043;-79
2022/02/27 10:02:54;;;;;;;11.23;2.08;;;;;;;5.41;100.00;103614.44;4761481;30;20111;-79
2022/02/27 10:05:24;;;;;;;8.63;1.83;;;;;;;5.52;100.00;103646.66;4755021;30;20040;-79
2022/02/27 10:07:59;;;;;;;8.07;1.90;;;;;;;5.53;100.00;103640.38;4756572;30;20056;-79
2022/02/27 10:10:25;;;;;;;6.10;1.50;;;;;;;5.49;100.00;103646.84;4771168;30;20097;-79
2022/02/27 10:12:51;;;;;;;10.25;1.67;;;;;;;5.53;100.00;103648.41;4753519;30;20040;-79
2022/02/27 10:15:17;;;;;;;11.80;2.00;;;;;;;5.59;100.00;103645.31;4762199;30;20105;-79
2022/02/27 10:17:43;;;;;;;7.82;1.65;;;;;;;5.61;100.00;103653.25;4762569;30;20040;-80
2022/02/27 10:20:15;;;;;;;5.43;1.50;;;;;;;5.50;100.00;103639.72;4760571;30;20499;-79
2022/02/27 10:22:48;;;;;;;8.68;1.80;;;;;;;5.58;100.00;103648.94;4763964;30;20047;-79
2022/02/27 10:25:28;;;;;;;9.93;1.40;;;;;;;5.69;100.00;103655.41;4762657;30;20130;-79
2022/02/27 10:27:59;;;;;;;9.07;1.70;;;;;;;5.69;100.00;103652.75;4762159;30;20104;-78
2022/02/27 10:30:29;;;;;;;10.70;1.85;;;;;;;5.68;100.00;103651.91;4760662;30;20048;-79
2022/02/27 10:33:09;;;;;;;8.80;1.80;;;;;;;5.66;100.00;103653.78;4762417;30;20051;-79
2022/02/27 10:35:48;;;;;;;8.50;1.90;;;;;;;5.63;100.00;103656.69;4762650;30;20032;-80
2022/02/27 10:38:17;;;;;;;8.15;1.70;;;;;;;5.61;100.00;103659.44;4761639;30;20058;-80
2022/02/27 10:40:48;;;;;;;10.38;2.03;;;;;;;5.57;100.00;103655.25;4760413;30;20047;-80
2022/02/27 10:43:15;;;;;;;7.10;2.00;;;;;;;5.71;100.00;103656.19;4776841;30;20032;-79
2022/02/27 10:45:42;;;;;;;9.00;2.42;;;;;;;5.77;100.00;103670.03;4764482;30;20035;-79
2022/02/27 10:48:07;;;;;;;6.53;1.92;;;;;;;5.81;100.00;103671.53;4763937;30;20032;-79
2022/02/27 10:50:34;;;;;;;9.93;2.28;;;;;;;5.86;100.00;103668.56;4762637;30;20034;-80
2022/02/27 10:52:59;;;;;;;9.10;2.42;;;;;;;5.88;100.00;103667.50;4761384;30;20422;-79
2022/02/27 10:55:26;;;;;;;6.22;1.85;;;;;;;5.90;100.00;103675.44;4760217;30;20031;-79
2022/02/27 10:57:52;;;;;;;9.98;2.78;;;;;;;5.94;100.00;103673.47;4761799;30;20439;-79
2022/02/27 11:00:23;;;;;;;10.32;2.40;;;;;;;6.00;100.00;103673.94;4765004;30;20056;-79
2022/02/27 11:03:09;;;;;;;8.60;2.38;;;;;;;5.84;100.00;103654.47;4758187;30;20557;-79
2022/02/27 11:05:37;;;;;;;8.75;2.10;;;;;;;5.87;100.00;103657.78;4760551;30;20119;-79
2022/02/27 11:08:05;;;;;;;7.03;2.22;;;;;;;5.94;100.00;103677.00;4754991;30;20042;-79
2022/02/27 11:10:33;;;;;;;9.35;2.10;;;;;;;5.92;100.00;103681.53;4762226;30;20028;-79
2022/02/27 11:13:09;;;;;;;9.48;2.38;;;;;;;5.92;100.00;103678.00;4761726;30;20039;-79
2022/02/27 11:15:35;;;;;;;10.05;2.20;;;;;;;5.88;100.00;103685.38;4735263;30;20105;-79